createdAt,value
2017-02-03T00:00:16.733Z,0
2017-02-03T00:01:28.186Z,0
2017-02-03T00:02:39.596Z,0
2017-02-03T00:03:51.002Z,0
2017-02-03T00:05:02.411Z,0
2017-02-03T00:06:13.811Z,0
2017-02-03T00:07:25.470Z,0
2017-02-03T00:08:36.872Z,0
2017-02-03T00:09:48.284Z,0
2017-02-03T00:10:59.690Z,0
2017-02-03T00:12:11.100Z,0
2017-02-03T00:13:22.756Z,0
2017-02-03T00:14:34.155Z,0
2017-02-03T00:15:45.562Z,0
2017-02-03T00:16:56.965Z,0
2017-02-03T00:18:08.365Z,0
2017-02-03T00:19:20.016Z,0
2017-02-03T00:20:31.419Z,0
2017-02-03T00:21:42.827Z,0
2017-02-03T00:22:54.266Z,0
2017-02-03T00:24:05.890Z,0
2017-02-03T00:25:17.538Z,0
2017-02-03T00:26:28.941Z,0
2017-02-03T00:27:40.550Z,0
2017-02-03T00:28:52.155Z,0
2017-02-03T00:30:03.567Z,0
2017-02-03T00:31:15.026Z,0
2017-02-03T00:32:26.427Z,0
2017-02-03T00:33:37.836Z,0
2017-02-03T00:34:49.240Z,0
2017-02-03T00:36:00.639Z,0
2017-02-03T00:37:12.103Z,0
2017-02-03T00:38:23.510Z,0
2017-02-03T00:39:34.918Z,0
2017-02-03T00:40:46.323Z,0
2017-02-03T00:41:57.742Z,0
2017-02-03T00:43:09.205Z,0
2017-02-03T00:44:20.610Z,0
2017-02-03T00:45:32.011Z,0
2017-02-03T00:46:43.614Z,0
2017-02-03T00:47:55.018Z,0
2017-02-03T00:49:06.876Z,0
2017-02-03T00:50:18.288Z,0
2017-02-03T00:51:29.694Z,0
2017-02-03T00:52:41.298Z,0
2017-02-03T00:53:52.701Z,0
2017-02-03T00:55:04.365Z,0
2017-02-03T00:56:15.763Z,0
2017-02-03T00:57:27.171Z,0
2017-02-03T00:58:38.781Z,0
2017-02-03T00:59:50.388Z,0
2017-02-03T01:01:01.839Z,0
2017-02-03T01:02:13.473Z,0
2017-02-03T01:03:24.877Z,0
2017-02-03T01:04:36.292Z,0
2017-02-03T01:05:47.891Z,0
2017-02-03T01:06:59.346Z,0
2017-02-03T01:08:10.755Z,0
2017-02-03T01:09:22.164Z,0
2017-02-03T01:10:33.566Z,0
2017-02-03T01:11:44.976Z,0
2017-02-03T01:12:56.432Z,0
2017-02-03T01:14:07.837Z,0
2017-02-03T01:15:19.242Z,0
2017-02-03T01:16:30.650Z,0
2017-02-03T01:17:42.057Z,0
2017-02-03T01:18:53.509Z,0
2017-02-03T01:20:04.915Z,0
2017-02-03T01:21:16.320Z,0
2017-02-03T01:22:27.731Z,0
2017-02-03T01:23:39.137Z,0
2017-02-03T01:24:50.585Z,0
2017-02-03T01:26:02.190Z,0
2017-02-03T01:27:13.593Z,0
2017-02-03T01:28:24.997Z,0
2017-02-03T01:29:36.393Z,0
2017-02-03T01:30:47.879Z,0
2017-02-03T01:31:59.282Z,0
2017-02-03T01:33:10.885Z,0
2017-02-03T01:34:22.285Z,0
2017-02-03T01:35:33.722Z,0
2017-02-03T01:36:45.174Z,0
2017-02-03T01:37:56.577Z,0
2017-02-03T01:39:07.975Z,0
2017-02-03T01:40:19.385Z,0
2017-02-03T01:41:30.790Z,0
2017-02-03T01:42:42.436Z,0
2017-02-03T01:43:53.841Z,0
2017-02-03T01:45:05.236Z,0
2017-02-03T01:46:16.635Z,0
2017-02-03T01:47:28.041Z,0
2017-02-03T01:48:39.695Z,0
2017-02-03T01:49:51.100Z,0
2017-02-03T01:51:02.509Z,0
2017-02-03T01:52:14.124Z,0
2017-02-03T01:53:25.725Z,0
2017-02-03T01:54:37.182Z,0
2017-02-03T01:55:48.583Z,0
2017-02-03T01:57:00.185Z,0
2017-02-03T01:58:11.589Z,0
2017-02-03T01:59:22.993Z,0
2017-02-03T02:00:34.444Z,0
2017-02-03T02:01:45.847Z,0
2017-02-03T02:02:57.261Z,0
2017-02-03T02:04:08.664Z,0
2017-02-03T02:05:20.072Z,0
2017-02-03T02:06:31.527Z,0
2017-02-03T02:07:43.142Z,0
2017-02-03T02:08:54.560Z,0
2017-02-03T02:10:05.958Z,0
2017-02-03T02:11:17.362Z,0
2017-02-03T02:12:28.823Z,0
2017-02-03T02:13:40.245Z,0
2017-02-03T02:14:51.647Z,0
2017-02-03T02:16:03.055Z,0
2017-02-03T02:17:14.459Z,0
2017-02-03T02:18:25.907Z,0
2017-02-03T02:19:37.309Z,0
2017-02-03T02:20:48.906Z,0
2017-02-03T02:22:00.315Z,0
2017-02-03T02:23:11.715Z,0
2017-02-03T02:24:23.173Z,0
2017-02-03T02:25:34.577Z,0
2017-02-03T02:26:46.008Z,0
2017-02-03T02:27:57.408Z,0
2017-02-03T02:29:08.815Z,0
2017-02-03T02:30:20.259Z,0
2017-02-03T02:31:31.662Z,0
2017-02-03T02:32:43.094Z,0
2017-02-03T02:33:54.502Z,0
2017-02-03T02:35:05.911Z,0
2017-02-03T02:36:17.361Z,0
2017-02-03T02:37:28.763Z,0
2017-02-03T02:38:40.166Z,0
2017-02-03T02:39:51.569Z,0
2017-02-03T02:41:02.969Z,0
2017-02-03T02:42:14.429Z,0
2017-02-03T02:43:25.861Z,0
2017-02-03T02:44:37.269Z,0
2017-02-03T02:45:48.676Z,0
2017-02-03T02:47:00.082Z,0
2017-02-03T02:48:11.531Z,0
2017-02-03T02:49:23.142Z,0
2017-02-03T02:50:34.546Z,0
2017-02-03T02:51:45.959Z,0
2017-02-03T02:52:57.364Z,0
2017-02-03T02:54:09.223Z,0
2017-02-03T02:55:20.633Z,0
2017-02-03T02:56:32.445Z,0
2017-02-03T02:57:43.851Z,0
2017-02-03T02:58:55.260Z,0
2017-02-03T03:00:06.715Z,0
2017-02-03T03:01:18.130Z,0
2017-02-03T03:02:29.735Z,0
2017-02-03T03:03:41.133Z,0
2017-02-03T03:04:52.533Z,0
2017-02-03T03:06:03.993Z,0
2017-02-03T03:07:15.405Z,0
2017-02-03T03:08:26.801Z,0
2017-02-03T03:09:38.211Z,0
2017-02-03T03:10:49.615Z,0
2017-02-03T03:12:01.072Z,0
2017-02-03T03:13:12.478Z,0
2017-02-03T03:14:23.886Z,0
2017-02-03T03:15:35.287Z,0
2017-02-03T03:16:46.712Z,0
2017-02-03T03:17:58.163Z,0
2017-02-03T03:19:09.569Z,0
2017-02-03T03:20:20.976Z,0
2017-02-03T03:21:32.592Z,0
2017-02-03T03:22:43.994Z,0
2017-02-03T03:23:55.648Z,0
2017-02-03T03:25:07.052Z,0
2017-02-03T03:26:18.456Z,0
2017-02-03T03:27:29.870Z,0
2017-02-03T03:28:41.270Z,0
2017-02-03T03:29:52.732Z,0
2017-02-03T03:31:04.148Z,0
2017-02-03T03:32:15.555Z,0
2017-02-03T03:33:26.953Z,0
2017-02-03T03:34:38.757Z,0
2017-02-03T03:35:50.214Z,0
2017-02-03T03:37:01.627Z,0
2017-02-03T03:38:13.031Z,0
2017-02-03T03:39:24.434Z,0
2017-02-03T03:40:36.040Z,0
2017-02-03T03:41:47.491Z,0
2017-02-03T03:42:58.899Z,0
2017-02-03T03:44:10.297Z,0
2017-02-03T03:45:21.908Z,0
2017-02-03T03:46:33.314Z,0
2017-02-03T03:47:44.974Z,0
2017-02-03T03:48:56.376Z,0
2017-02-03T03:50:07.779Z,0
2017-02-03T03:51:19.182Z,0
2017-02-03T03:52:30.584Z,0
2017-02-03T03:53:42.032Z,0
2017-02-03T03:54:53.478Z,0
2017-02-03T03:56:04.877Z,0
2017-02-03T03:57:16.290Z,0
2017-02-03T03:58:27.701Z,0
2017-02-03T03:59:39.358Z,0
2017-02-03T04:00:50.758Z,0
2017-02-03T04:02:02.359Z,0
2017-02-03T04:03:13.761Z,0
2017-02-03T04:04:25.170Z,0
2017-02-03T04:05:36.640Z,0
2017-02-03T04:06:48.040Z,0
2017-02-03T04:07:59.459Z,0
2017-02-03T04:09:10.863Z,0
2017-02-03T04:10:22.267Z,0
2017-02-03T04:11:33.718Z,0
2017-02-03T04:12:45.127Z,0
2017-02-03T04:13:56.529Z,0
2017-02-03T04:15:07.934Z,0
2017-02-03T04:16:19.329Z,0
2017-02-03T04:17:30.786Z,0
2017-02-03T04:18:42.190Z,0
2017-02-03T04:19:53.632Z,0
2017-02-03T04:21:05.031Z,0
2017-02-03T04:22:16.425Z,0
2017-02-03T04:23:28.079Z,0
2017-02-03T04:24:39.469Z,0
2017-02-03T04:25:50.872Z,0
2017-02-03T04:27:02.271Z,0
2017-02-03T04:28:13.673Z,0
2017-02-03T04:29:25.136Z,0
2017-02-03T04:30:36.735Z,0
2017-02-03T04:31:48.134Z,0
2017-02-03T04:32:59.545Z,0
2017-02-03T04:34:11.149Z,0
2017-02-03T04:35:22.597Z,0
2017-02-03T04:36:34.203Z,0
2017-02-03T04:37:45.610Z,0
2017-02-03T04:38:57.009Z,0
2017-02-03T04:40:08.405Z,0
2017-02-03T04:41:19.865Z,0
2017-02-03T04:42:31.269Z,0
2017-02-03T04:43:42.678Z,0
2017-02-03T04:44:54.084Z,0
2017-02-03T04:46:05.492Z,0
2017-02-03T04:47:16.942Z,0
2017-02-03T04:48:28.349Z,0
2017-02-03T04:49:39.754Z,0
2017-02-03T04:50:51.154Z,0
2017-02-03T04:52:02.552Z,0
2017-02-03T04:53:14.423Z,0
2017-02-03T04:54:25.835Z,0
2017-02-03T04:55:37.226Z,0
2017-02-03T04:56:48.636Z,0
2017-02-03T04:58:00.046Z,0
2017-02-03T04:59:11.494Z,0
2017-02-03T05:00:22.896Z,0
2017-02-03T05:01:34.296Z,0
2017-02-03T05:02:45.699Z,0
2017-02-03T05:03:57.102Z,0
2017-02-03T05:05:08.761Z,0
2017-02-03T05:06:20.403Z,0
2017-02-03T05:07:31.814Z,0
2017-02-03T05:08:43.222Z,0
2017-02-03T05:09:54.629Z,0
2017-02-03T05:11:06.079Z,0
2017-02-03T05:12:17.695Z,0
2017-02-03T05:13:29.094Z,0
2017-02-03T05:14:40.496Z,0
2017-02-03T05:15:52.101Z,0
2017-02-03T05:17:03.563Z,0
2017-02-03T05:18:14.971Z,0
2017-02-03T05:19:26.372Z,0
2017-02-03T05:20:37.774Z,0
2017-02-03T05:21:49.181Z,0
2017-02-03T05:23:00.638Z,0
2017-02-03T05:24:12.075Z,0
2017-02-03T05:25:23.486Z,0
2017-02-03T05:26:35.085Z,0
2017-02-03T05:27:46.484Z,0
2017-02-03T05:28:57.935Z,0
2017-02-03T05:30:09.381Z,0
2017-02-03T05:31:20.791Z,0
2017-02-03T05:32:32.195Z,0
2017-02-03T05:33:43.598Z,0
2017-02-03T05:34:55.280Z,0
2017-02-03T05:36:06.885Z,0
2017-02-03T05:37:18.485Z,0
2017-02-03T05:38:29.897Z,0
2017-02-03T05:39:41.508Z,0
2017-02-03T05:40:52.961Z,0
2017-02-03T05:42:04.372Z,0
2017-02-03T05:43:15.781Z,0
2017-02-03T05:44:27.188Z,0
2017-02-03T05:45:38.595Z,0
2017-02-03T05:46:50.047Z,0
2017-02-03T05:48:01.457Z,0
2017-02-03T05:49:13.057Z,0
2017-02-03T05:50:24.460Z,0
2017-02-03T05:51:35.860Z,0
2017-02-03T05:52:47.313Z,0
2017-02-03T05:53:58.717Z,0
2017-02-03T05:55:10.121Z,0
2017-02-03T05:56:21.930Z,0
2017-02-03T05:57:33.381Z,0
2017-02-03T05:58:44.783Z,0
2017-02-03T05:59:56.183Z,0
2017-02-03T06:01:07.592Z,0
2017-02-03T06:02:18.997Z,0
2017-02-03T06:03:30.447Z,0
2017-02-03T06:04:41.850Z,0
2017-02-03T06:05:53.250Z,0
2017-02-03T06:07:04.664Z,0
2017-02-03T06:08:16.065Z,0
2017-02-03T06:09:27.518Z,0
2017-02-03T06:10:38.915Z,0
2017-02-03T06:11:50.517Z,0
2017-02-03T06:13:01.919Z,0
2017-02-03T06:14:13.533Z,0
2017-02-03T06:15:24.980Z,0
2017-02-03T06:16:36.386Z,0
2017-02-03T06:17:47.791Z,0
2017-02-03T06:18:59.197Z,0
2017-02-03T06:20:10.600Z,0
2017-02-03T06:21:22.053Z,0
2017-02-03T06:22:33.455Z,0
2017-02-03T06:23:44.859Z,0
2017-02-03T06:24:56.257Z,0
2017-02-03T06:26:07.664Z,0
2017-02-03T06:27:19.117Z,0
2017-02-03T06:28:30.534Z,0
2017-02-03T06:29:41.937Z,0
2017-02-03T06:30:53.340Z,0
2017-02-03T06:32:04.955Z,0
2017-02-03T06:33:16.617Z,0
2017-02-03T06:34:28.014Z,0
2017-02-03T06:35:39.425Z,0
2017-02-03T06:36:50.833Z,0
2017-02-03T06:38:02.232Z,0
2017-02-03T06:39:13.688Z,0
2017-02-03T06:40:25.136Z,4
2017-02-03T06:41:36.537Z,4
2017-02-03T06:42:47.946Z,0
2017-02-03T06:43:59.356Z,4
2017-02-03T06:45:10.808Z,4
2017-02-03T06:46:22.425Z,4
2017-02-03T06:47:33.844Z,4
2017-02-03T06:48:45.250Z,4
2017-02-03T06:49:56.659Z,8
2017-02-03T06:51:08.118Z,8
2017-02-03T06:52:19.721Z,12
2017-02-03T06:53:31.125Z,16
2017-02-03T06:54:42.526Z,16
2017-02-03T06:55:53.936Z,20
2017-02-03T06:57:05.387Z,20
2017-02-03T06:58:16.799Z,24
2017-02-03T06:59:28.206Z,28
2017-02-03T07:00:39.606Z,36
2017-02-03T07:01:51.010Z,40
2017-02-03T07:03:02.511Z,44
2017-02-03T07:04:13.914Z,52
2017-02-03T07:05:25.320Z,52
2017-02-03T07:06:36.930Z,60
2017-02-03T07:07:48.342Z,68
2017-02-03T07:08:59.796Z,68
2017-02-03T07:10:11.204Z,76
2017-02-03T07:11:22.611Z,76
2017-02-03T07:12:34.014Z,80
2017-02-03T07:13:45.419Z,88
2017-02-03T07:14:56.869Z,88
2017-02-03T07:16:08.280Z,92
2017-02-03T07:17:19.682Z,92
2017-02-03T07:18:31.493Z,100
2017-02-03T07:19:43.100Z,112
2017-02-03T07:20:54.557Z,120
2017-02-03T07:22:05.967Z,124
2017-02-03T07:23:17.382Z,124
2017-02-03T07:24:28.987Z,128
2017-02-03T07:25:40.391Z,128
2017-02-03T07:26:51.840Z,140
2017-02-03T07:28:03.244Z,160
2017-02-03T07:29:14.669Z,188
2017-02-03T07:30:26.274Z,220
2017-02-03T07:31:37.673Z,252
2017-02-03T07:32:49.125Z,288
2017-02-03T07:34:00.535Z,312
2017-02-03T07:35:11.944Z,336
2017-02-03T07:36:23.383Z,352
2017-02-03T07:37:34.793Z,376
2017-02-03T07:38:46.447Z,392
2017-02-03T07:39:57.850Z,408
2017-02-03T07:41:09.464Z,412
2017-02-03T07:42:21.074Z,412
2017-02-03T07:43:32.485Z,416
2017-02-03T07:44:44.138Z,420
2017-02-03T07:45:55.743Z,436
2017-02-03T07:47:07.148Z,448
2017-02-03T07:48:18.561Z,464
2017-02-03T07:49:29.968Z,476
2017-02-03T07:50:41.427Z,480
2017-02-03T07:51:52.836Z,492
2017-02-03T07:53:04.251Z,496
2017-02-03T07:54:15.658Z,496
2017-02-03T07:55:27.259Z,508
2017-02-03T07:56:38.915Z,536
2017-02-03T07:57:50.517Z,572
2017-02-03T07:59:01.914Z,608
2017-02-03T08:00:13.319Z,652
2017-02-03T08:01:24.726Z,716
2017-02-03T08:02:36.183Z,804
2017-02-03T08:03:47.593Z,876
2017-02-03T08:04:58.996Z,928
2017-02-03T08:06:10.410Z,972
2017-02-03T08:07:21.810Z,1004
2017-02-03T08:08:33.272Z,1016
2017-02-03T08:09:44.909Z,996
2017-02-03T08:10:56.316Z,968
2017-02-03T08:12:07.917Z,928
2017-02-03T08:13:19.325Z,884
2017-02-03T08:14:30.780Z,852
2017-02-03T08:15:42.233Z,856
2017-02-03T08:16:53.636Z,896
2017-02-03T08:18:05.037Z,916
2017-02-03T08:19:16.448Z,912
2017-02-03T08:20:27.908Z,880
2017-02-03T08:21:39.313Z,864
2017-02-03T08:22:50.724Z,844
2017-02-03T08:24:02.334Z,800
2017-02-03T08:25:13.733Z,760
2017-02-03T08:26:25.182Z,740
2017-02-03T08:27:36.791Z,740
2017-02-03T08:28:48.198Z,752
2017-02-03T08:29:59.607Z,788
2017-02-03T08:31:11.018Z,848
2017-02-03T08:32:22.475Z,916
2017-02-03T08:33:33.881Z,992
2017-02-03T08:34:45.287Z,1076
2017-02-03T08:35:56.691Z,1116
2017-02-03T08:37:08.095Z,1088
2017-02-03T08:38:19.549Z,1060
2017-02-03T08:39:30.944Z,1088
2017-02-03T08:40:42.355Z,1148
2017-02-03T08:41:53.764Z,1196
2017-02-03T08:43:05.374Z,1224
2017-02-03T08:44:16.833Z,1268
2017-02-03T08:45:28.236Z,1320
2017-02-03T08:46:39.652Z,1308
2017-02-03T08:47:51.055Z,1256
2017-02-03T08:49:02.463Z,1224
2017-02-03T08:50:13.919Z,1212
2017-02-03T08:51:25.523Z,1204
2017-02-03T08:52:36.929Z,1180
2017-02-03T08:53:48.336Z,1160
2017-02-03T08:54:59.946Z,1196
2017-02-03T08:56:11.600Z,1268
2017-02-03T08:57:23.007Z,1332
2017-02-03T08:58:34.416Z,1412
2017-02-03T08:59:46.027Z,1544
2017-02-03T09:00:57.431Z,1680
2017-02-03T09:02:09.095Z,1744
2017-02-03T09:03:20.497Z,1716
2017-02-03T09:04:31.902Z,1668
2017-02-03T09:05:43.304Z,1668
2017-02-03T09:06:54.712Z,1708
2017-02-03T09:08:06.180Z,1704
2017-02-03T09:09:17.590Z,1640
2017-02-03T09:10:28.998Z,1564
2017-02-03T09:11:40.402Z,1520
2017-02-03T09:12:51.838Z,1528
2017-02-03T09:14:03.296Z,1560
2017-02-03T09:15:14.724Z,1592
2017-02-03T09:16:26.334Z,1644
2017-02-03T09:17:37.745Z,1712
2017-02-03T09:18:49.157Z,1788
2017-02-03T09:20:00.627Z,1884
2017-02-03T09:21:12.034Z,2000
2017-02-03T09:22:23.465Z,2028
2017-02-03T09:23:34.869Z,1932
2017-02-03T09:24:46.475Z,1792
2017-02-03T09:25:57.931Z,1696
2017-02-03T09:27:09.338Z,1732
2017-02-03T09:28:20.747Z,1904
2017-02-03T09:29:32.353Z,2008
2017-02-03T09:30:43.758Z,2024
2017-02-03T09:31:55.408Z,2120
2017-02-03T09:33:07.022Z,2276
2017-02-03T09:34:18.428Z,2320
2017-02-03T09:35:29.832Z,2244
2017-02-03T09:36:41.254Z,2164
2017-02-03T09:37:52.709Z,2120
2017-02-03T09:39:04.119Z,2116
2017-02-03T09:40:15.567Z,2140
2017-02-03T09:41:26.975Z,2180
2017-02-03T09:42:38.374Z,2264
2017-02-03T09:43:49.828Z,2360
2017-02-03T09:45:01.439Z,2412
2017-02-03T09:46:12.844Z,2348
2017-02-03T09:47:24.458Z,2288
2017-02-03T09:48:35.875Z,2176
2017-02-03T09:49:47.334Z,1924
2017-02-03T09:50:58.744Z,1668
2017-02-03T09:52:10.147Z,1560
2017-02-03T09:53:21.553Z,1496
2017-02-03T09:54:32.960Z,1408
2017-02-03T09:55:44.421Z,1356
2017-02-03T09:56:55.836Z,1428
2017-02-03T09:58:07.241Z,1560
2017-02-03T09:59:18.677Z,1696
2017-02-03T10:00:30.084Z,1844
2017-02-03T10:01:41.544Z,2012
2017-02-03T10:02:52.943Z,2200
2017-02-03T10:04:04.355Z,2424
2017-02-03T10:05:15.959Z,2616
2017-02-03T10:06:27.375Z,2716
2017-02-03T10:07:38.828Z,2740
2017-02-03T10:08:50.232Z,2780
2017-02-03T10:10:01.649Z,2820
2017-02-03T10:11:13.055Z,2836
2017-02-03T10:12:24.481Z,2832
2017-02-03T10:13:35.942Z,2816
2017-02-03T10:14:47.344Z,2796
2017-02-03T10:15:58.753Z,2772
2017-02-03T10:17:10.171Z,2736
2017-02-03T10:18:21.583Z,2720
2017-02-03T10:19:33.043Z,2704
2017-02-03T10:20:44.654Z,2640
2017-02-03T10:21:56.067Z,2564
2017-02-03T10:23:07.512Z,2512
2017-02-03T10:24:18.950Z,2544
2017-02-03T10:25:30.608Z,2660
2017-02-03T10:26:42.025Z,2800
2017-02-03T10:27:53.437Z,2916
2017-02-03T10:29:04.842Z,2940
2017-02-03T10:30:16.257Z,2864
2017-02-03T10:31:27.912Z,2768
2017-02-03T10:32:39.321Z,2752
2017-02-03T10:33:50.735Z,2856
2017-02-03T10:35:02.147Z,3036
2017-02-03T10:36:13.758Z,3268
2017-02-03T10:37:25.225Z,3488
2017-02-03T10:38:36.843Z,3600
2017-02-03T10:39:48.250Z,3648
2017-02-03T10:40:59.675Z,3672
2017-02-03T10:42:11.072Z,3720
2017-02-03T10:43:22.534Z,3804
2017-02-03T10:44:34.145Z,3876
2017-02-03T10:45:45.559Z,3976
2017-02-03T10:46:56.971Z,4124
2017-02-03T10:48:08.386Z,4304
2017-02-03T10:49:20.053Z,4460
2017-02-03T10:50:31.457Z,4544
2017-02-03T10:51:42.863Z,4516
2017-02-03T10:52:54.271Z,4440
2017-02-03T10:54:05.685Z,4272
2017-02-03T10:55:17.148Z,4036
2017-02-03T10:56:28.565Z,3736
2017-02-03T10:57:39.979Z,3464
2017-02-03T10:58:51.387Z,3196
2017-02-03T11:00:02.790Z,2964
2017-02-03T11:01:14.253Z,2804
2017-02-03T11:02:25.658Z,2752
2017-02-03T11:03:37.086Z,2752
2017-02-03T11:04:48.484Z,2912
2017-02-03T11:05:59.891Z,3080
2017-02-03T11:07:11.546Z,3244
2017-02-03T11:08:22.952Z,3360
2017-02-03T11:09:34.361Z,3384
2017-02-03T11:10:45.769Z,3336
2017-02-03T11:11:57.175Z,3228
2017-02-03T11:13:08.834Z,3148
2017-02-03T11:14:20.275Z,3032
2017-02-03T11:15:31.687Z,2972
2017-02-03T11:16:43.098Z,2948
2017-02-03T11:17:54.697Z,2944
2017-02-03T11:19:06.159Z,2920
2017-02-03T11:20:17.601Z,2816
2017-02-03T11:21:29.018Z,2744
2017-02-03T11:22:40.617Z,2760
2017-02-03T11:23:52.234Z,2788
2017-02-03T11:25:03.690Z,2824
2017-02-03T11:26:15.098Z,2832
2017-02-03T11:27:26.502Z,2756
2017-02-03T11:28:37.918Z,2648
2017-02-03T11:29:49.332Z,2564
2017-02-03T11:31:00.995Z,2492
2017-02-03T11:32:12.606Z,2564
2017-02-03T11:33:24.012Z,2652
2017-02-03T11:34:35.421Z,2664
2017-02-03T11:35:46.835Z,2712
2017-02-03T11:36:58.293Z,2792
2017-02-03T11:38:09.892Z,2728
2017-02-03T11:39:21.299Z,2504
2017-02-03T11:40:32.702Z,2368
2017-02-03T11:41:44.111Z,2276
2017-02-03T11:42:55.570Z,2284
2017-02-03T11:44:07.004Z,2356
2017-02-03T11:45:18.414Z,2492
2017-02-03T11:46:29.821Z,2692
2017-02-03T11:47:41.230Z,2844
2017-02-03T11:48:52.683Z,3060
2017-02-03T11:50:04.101Z,3392
2017-02-03T11:51:15.509Z,3672
2017-02-03T11:52:27.118Z,4092
2017-02-03T11:53:38.544Z,4472
2017-02-03T11:54:49.996Z,4784
2017-02-03T11:56:01.404Z,4948
2017-02-03T11:57:12.802Z,4996
2017-02-03T11:58:24.245Z,4964
2017-02-03T11:59:35.660Z,4704
2017-02-03T12:00:47.118Z,4472
2017-02-03T12:01:58.527Z,4308
2017-02-03T12:03:09.942Z,4372
2017-02-03T12:04:21.349Z,4424
2017-02-03T12:05:32.761Z,4348
2017-02-03T12:06:44.223Z,4296
2017-02-03T12:07:55.635Z,4260
2017-02-03T12:09:07.254Z,4212
2017-02-03T12:10:18.867Z,4076
2017-02-03T12:11:30.281Z,3936
2017-02-03T12:12:41.735Z,3768
2017-02-03T12:13:53.145Z,3604
2017-02-03T12:15:04.550Z,3472
2017-02-03T12:16:15.964Z,3376
2017-02-03T12:17:27.376Z,3320
2017-02-03T12:18:38.830Z,3268
2017-02-03T12:19:50.432Z,3160
2017-02-03T12:21:01.838Z,3016
2017-02-03T12:22:13.255Z,2888
2017-02-03T12:23:24.708Z,2808
2017-02-03T12:24:36.176Z,2764
2017-02-03T12:25:47.594Z,2728
2017-02-03T12:26:59.206Z,2720
2017-02-03T12:28:10.606Z,2716
2017-02-03T12:29:22.221Z,2728
2017-02-03T12:30:33.679Z,2736
2017-02-03T12:31:45.095Z,2736
2017-02-03T12:32:56.503Z,2732
2017-02-03T12:34:08.124Z,2716
2017-02-03T12:35:19.544Z,2712
2017-02-03T12:36:31.215Z,2708
2017-02-03T12:37:42.834Z,2708
2017-02-03T12:38:54.443Z,2692
2017-02-03T12:40:05.850Z,2644
2017-02-03T12:41:17.303Z,2600
2017-02-03T12:42:28.765Z,2572
2017-02-03T12:43:40.180Z,2560
2017-02-03T12:44:51.790Z,2552
2017-02-03T12:46:03.206Z,2548
2017-02-03T12:47:14.614Z,2560
2017-02-03T12:48:26.084Z,2580
2017-02-03T12:49:37.493Z,2596
2017-02-03T12:50:48.903Z,2596
2017-02-03T12:52:00.308Z,2580
2017-02-03T12:53:11.726Z,2564
2017-02-03T12:54:23.193Z,2536
2017-02-03T12:55:34.604Z,2492
2017-02-03T12:56:46.019Z,2436
2017-02-03T12:57:57.646Z,2364
2017-02-03T12:59:09.059Z,2280
2017-02-03T13:00:20.726Z,2240
2017-02-03T13:01:32.337Z,2196
2017-02-03T13:02:43.752Z,2148
2017-02-03T13:03:55.153Z,2212
2017-02-03T13:05:06.571Z,2432
2017-02-03T13:06:18.037Z,2616
2017-02-03T13:07:29.441Z,2752
2017-02-03T13:08:40.859Z,2844
2017-02-03T13:09:52.269Z,2912
2017-02-03T13:11:03.677Z,2944
2017-02-03T13:12:15.327Z,2960
2017-02-03T13:13:26.735Z,2960
2017-02-03T13:14:38.148Z,2948
2017-02-03T13:15:49.555Z,2928
2017-02-03T13:17:00.963Z,2904
2017-02-03T13:18:12.629Z,2888
2017-02-03T13:19:24.035Z,2880
2017-02-03T13:20:35.458Z,2868
2017-02-03T13:21:46.868Z,2860
2017-02-03T13:22:58.286Z,2848
2017-02-03T13:24:09.744Z,2828
2017-02-03T13:25:21.160Z,2788
2017-02-03T13:26:32.574Z,2736
2017-02-03T13:27:44.179Z,2720
2017-02-03T13:28:55.586Z,2696
2017-02-03T13:30:07.044Z,2616
2017-02-03T13:31:18.453Z,2476
2017-02-03T13:32:29.868Z,2284
2017-02-03T13:33:41.476Z,2044
2017-02-03T13:34:52.888Z,1904
2017-02-03T13:36:04.356Z,1960
2017-02-03T13:37:15.965Z,2300
2017-02-03T13:38:27.374Z,2924
2017-02-03T13:39:38.978Z,3396
2017-02-03T13:40:50.386Z,3648
2017-02-03T13:42:01.843Z,3792
2017-02-03T13:43:13.248Z,3900
2017-02-03T13:44:24.867Z,4004
2017-02-03T13:45:36.309Z,4108
2017-02-03T13:46:47.720Z,4188
2017-02-03T13:47:59.182Z,4248
2017-02-03T13:49:10.591Z,4296
2017-02-03T13:50:22.001Z,4332
2017-02-03T13:51:33.422Z,4376
2017-02-03T13:52:44.831Z,4420
2017-02-03T13:53:56.495Z,4456
2017-02-03T13:55:07.909Z,4468
2017-02-03T13:56:19.316Z,4448
2017-02-03T13:57:30.928Z,4388
2017-02-03T13:58:42.339Z,4300
2017-02-03T13:59:53.796Z,4216
2017-02-03T14:01:05.207Z,4196
2017-02-03T14:02:16.811Z,4304
2017-02-03T14:03:28.219Z,4368
2017-02-03T14:04:39.627Z,4344
2017-02-03T14:05:51.093Z,4408
2017-02-03T14:07:02.514Z,4556
2017-02-03T14:08:13.927Z,4832
2017-02-03T14:09:25.335Z,5112
2017-02-03T14:10:36.747Z,5404
2017-02-03T14:11:48.208Z,5624
2017-02-03T14:12:59.617Z,5920
2017-02-03T14:14:11.036Z,6196
2017-02-03T14:15:22.456Z,6360
2017-02-03T14:16:33.869Z,6964
2017-02-03T14:17:45.532Z,7320
2017-02-03T14:18:56.944Z,7540
2017-02-03T14:20:08.360Z,7628
2017-02-03T14:21:19.789Z,7692
2017-02-03T14:22:31.406Z,7648
2017-02-03T14:23:42.870Z,8004
2017-02-03T14:24:54.279Z,8472
2017-02-03T14:26:05.684Z,8352
2017-02-03T14:27:17.113Z,8280
2017-02-03T14:28:28.525Z,7320
2017-02-03T14:29:39.988Z,6888
2017-02-03T14:30:51.608Z,6608
2017-02-03T14:32:03.028Z,6428
2017-02-03T14:33:14.444Z,6204
2017-02-03T14:34:25.858Z,6280
2017-02-03T14:35:37.320Z,6232
2017-02-03T14:36:48.735Z,6744
2017-02-03T14:38:00.152Z,6896
2017-02-03T14:39:11.566Z,6712
2017-02-03T14:40:22.984Z,5852
2017-02-03T14:41:34.453Z,5352
2017-02-03T14:42:46.063Z,5212
2017-02-03T14:43:57.678Z,5060
2017-02-03T14:45:09.089Z,4988
2017-02-03T14:46:20.502Z,4760
2017-02-03T14:47:31.981Z,4488
2017-02-03T14:48:43.391Z,4292
2017-02-03T14:49:55.007Z,4120
2017-02-03T14:51:06.410Z,3932
2017-02-03T14:52:17.824Z,3756
2017-02-03T14:53:29.280Z,3488
2017-02-03T14:54:40.707Z,3204
2017-02-03T14:55:52.125Z,2992
2017-02-03T14:57:03.534Z,2772
2017-02-03T14:58:14.943Z,2544
2017-02-03T14:59:26.410Z,2348
2017-02-03T15:00:37.815Z,2188
2017-02-03T15:01:49.228Z,2096
2017-02-03T15:03:00.636Z,2060
2017-02-03T15:04:12.051Z,1972
2017-02-03T15:05:23.550Z,1848
2017-02-03T15:06:34.966Z,1656
2017-02-03T15:07:46.385Z,1532
2017-02-03T15:08:57.798Z,1388
2017-02-03T15:10:09.210Z,1248
2017-02-03T15:11:20.676Z,1176
2017-02-03T15:12:32.087Z,1140
2017-02-03T15:13:43.699Z,1120
2017-02-03T15:14:55.319Z,1124
2017-02-03T15:16:06.732Z,1100
2017-02-03T15:17:18.408Z,1044
2017-02-03T15:18:30.219Z,1012
2017-02-03T15:19:42.027Z,972
2017-02-03T15:20:53.432Z,900
2017-02-03T15:22:04.848Z,836
2017-02-03T15:23:16.308Z,792
2017-02-03T15:24:27.717Z,752
2017-02-03T15:25:39.134Z,720
2017-02-03T15:26:50.544Z,672
2017-02-03T15:28:02.158Z,628
2017-02-03T15:29:13.832Z,588
2017-02-03T15:30:25.244Z,548
2017-02-03T15:31:36.646Z,524
2017-02-03T15:32:48.053Z,504
2017-02-03T15:33:59.463Z,492
2017-02-03T15:35:10.923Z,468
2017-02-03T15:36:22.336Z,444
2017-02-03T15:37:33.743Z,412
2017-02-03T15:38:45.353Z,388
2017-02-03T15:39:56.759Z,356
2017-02-03T15:41:08.217Z,328
2017-02-03T15:42:19.832Z,300
2017-02-03T15:43:31.237Z,272
2017-02-03T15:44:43.051Z,252
2017-02-03T15:45:54.463Z,240
2017-02-03T15:47:05.937Z,224
2017-02-03T15:48:17.551Z,208
2017-02-03T15:49:28.968Z,196
2017-02-03T15:50:40.378Z,188
2017-02-03T15:51:51.989Z,180
2017-02-03T15:53:03.444Z,176
2017-02-03T15:54:14.855Z,164
2017-02-03T15:55:26.476Z,144
2017-02-03T15:56:37.890Z,132
2017-02-03T15:57:49.302Z,120
2017-02-03T15:59:00.765Z,108
2017-02-03T16:00:12.187Z,96
2017-02-03T16:01:23.595Z,92
2017-02-03T16:02:34.996Z,84
2017-02-03T16:03:46.414Z,80
2017-02-03T16:04:57.878Z,80
2017-02-03T16:06:09.293Z,80
2017-02-03T16:07:20.908Z,76
2017-02-03T16:08:32.311Z,72
2017-02-03T16:09:43.721Z,60
2017-02-03T16:10:55.187Z,56
2017-02-03T16:12:06.601Z,52
2017-02-03T16:13:18.016Z,48
2017-02-03T16:14:29.423Z,48
2017-02-03T16:15:41.038Z,40
2017-02-03T16:16:52.498Z,40
2017-02-03T16:18:03.910Z,36
2017-02-03T16:19:15.319Z,32
2017-02-03T16:20:26.927Z,32
2017-02-03T16:21:38.340Z,28
2017-02-03T16:22:49.800Z,24
2017-02-03T16:24:01.406Z,24
2017-02-03T16:25:12.808Z,20
2017-02-03T16:26:24.419Z,20
2017-02-03T16:27:35.838Z,16
2017-02-03T16:28:47.337Z,16
2017-02-03T16:29:58.748Z,12
2017-02-03T16:31:10.160Z,16
2017-02-03T16:32:21.602Z,12
2017-02-03T16:33:33.011Z,12
2017-02-03T16:34:44.463Z,12
2017-02-03T16:35:55.871Z,8
2017-02-03T16:37:07.281Z,12
2017-02-03T16:38:18.696Z,8
2017-02-03T16:39:30.137Z,8
2017-02-03T16:40:41.603Z,4